Worthington, Iowa
Current Conditions -  °F | °C
As of 5:55 AM on Saturday 25 Oct 2014 (Local Time) from KMXO Reporting Station
Haze Haze  
Wind Chill: 50°   Ceiling: Unl
Heat Index: 50°   Visibility: 1mi
Dew Point: 50°   Wind: 5mph
Humidity: 100%   Direction: 290°WNW
Pressure: 29.96"   Gusts: NA
Location:  42.4°N, 91.12°W
Report Text: KMXO 251055Z AUTO 29004KT 1SM BR SCT001 10/10 A2996 RMK AO2
Loading
Personal Weather Stations






























Interactive Weather Map
Tropical Storm Tracking
New forecast layout! Learn more

10-Day Weather Forecast

Advertisements
Track Severe Weather on mobile